Time;durP1;ratioP1;P1;durP2;ratioP2;P2;SDS_P1;SDS_P2;PMS_P1;PMS_P2;Temp;Humidity;BMP_temperature;BMP_pressure;BME280_temperature;BME280_humidity;BME280_pressure;Samples;Min_cycle;Max_cycle;Signal;HPM_P1;HPM_P2
2023/04/18 00:00:58;;;;;;;11.20;8.25;;;10.00;99.90;;;;;;5041374;28;20021;-42
2023/04/18 00:03:23;;;;;;;10.38;8.27;;;10.00;99.90;;;;;;5040867;28;20111;-42
2023/04/18 00:05:49;;;;;;;9.98;8.38;;;10.00;99.90;;;;;;5040197;28;20022;-44
2023/04/18 00:08:15;;;;;;;11.50;8.43;;;9.90;99.90;;;;;;5041728;28;20033;-44
2023/04/18 00:10:40;;;;;;;11.23;8.48;;;9.90;99.90;;;;;;5040696;28;20432;-43
2023/04/18 00:13:06;;;;;;;12.30;8.18;;;9.80;99.90;;;;;;5041820;28;20050;-43
2023/04/18 00:15:34;;;;;;;11.57;8.30;;;9.80;99.90;;;;;;5040757;28;20527;-43
2023/04/18 00:18:02;;;;;;;11.60;8.75;;;9.80;99.90;;;;;;5040426;28;20021;-44
2023/04/18 00:20:28;;;;;;;15.88;9.00;;;9.70;99.90;;;;;;5040928;28;20693;-43
2023/04/18 00:22:54;;;;;;;12.52;9.15;;;9.70;99.90;;;;;;5040751;28;20028;-43
2023/04/18 00:25:20;;;;;;;11.63;8.52;;;9.60;99.90;;;;;;5039722;28;20025;-45
2023/04/18 00:27:46;;;;;;;10.63;8.13;;;9.60;99.90;;;;;;5039896;28;20040;-42
2023/04/18 00:30:12;;;;;;;10.40;8.13;;;9.50;99.90;;;;;;5039856;28;20032;-43
2023/04/18 00:32:37;;;;;;;11.30;8.60;;;9.50;99.90;;;;;;5039795;28;20028;-42
2023/04/18 00:35:06;;;;;;;11.05;8.57;;;9.40;99.90;;;;;;5039579;28;20020;-44
2023/04/18 00:37:31;;;;;;;13.13;9.52;;;9.40;99.90;;;;;;5039668;28;20366;-44
2023/04/18 00:39:57;;;;;;;19.65;9.18;;;9.30;99.90;;;;;;5040173;28;20586;-33
2023/04/18 00:42:24;;;;;;;10.95;9.18;;;9.30;99.90;;;;;;5041039;28;20468;-33
2023/04/18 00:44:50;;;;;;;13.18;8.75;;;9.30;99.90;;;;;;5040476;28;20092;-42
2023/04/18 00:47:18;;;;;;;11.82;8.30;;;9.20;99.90;;;;;;5040324;28;20055;-43
2023/04/18 00:49:45;;;;;;;9.65;7.70;;;9.20;99.90;;;;;;5040244;28;20104;-42
2023/04/18 00:52:15;;;;;;;11.18;8.65;;;9.10;99.90;;;;;;5040046;28;20459;-42
2023/04/18 00:54:41;;;;;;;12.77;9.75;;;9.10;99.90;;;;;;5040544;28;20037;-43
2023/04/18 00:57:07;;;;;;;11.77;8.75;;;9.00;99.90;;;;;;5040791;28;20754;-44
2023/04/18 00:59:36;;;;;;;12.05;8.50;;;9.00;99.90;;;;;;5039943;28;20031;-43
2023/04/18 01:02:02;;;;;;;12.88;9.13;;;9.00;99.90;;;;;;5039885;28;20036;-43
2023/04/18 01:04:28;;;;;;;12.35;8.68;;;9.00;99.90;;;;;;5040408;28;20136;-44
2023/04/18 01:06:54;;;;;;;12.50;9.13;;;8.90;99.90;;;;;;5039348;28;20083;-43
2023/04/18 01:09:21;;;;;;;11.82;9.13;;;8.90;99.90;;;;;;5040131;28;20525;-44
2023/04/18 01:11:47;;;;;;;11.75;8.38;;;8.80;99.90;;;;;;5039795;28;20538;-43
2023/04/18 01:14:12;;;;;;;11.68;8.82;;;8.80;99.90;;;;;;5039833;28;20495;-43
2023/04/18 01:16:38;;;;;;;11.73;8.00;;;8.70;99.90;;;;;;5039869;28;20067;-44
2023/04/18 01:19:04;;;;;;;10.52;7.78;;;8.70;99.90;;;;;;5039695;28;20104;-44
2023/04/18 01:21:32;;;;;;;9.32;7.97;;;8.70;99.90;;;;;;5039598;28;20053;-43
2023/04/18 01:24:06;;;;;;;10.13;7.90;;;8.60;99.90;;;;;;5039802;28;20112;-44
2023/04/18 01:26:32;;;;;;;10.23;8.25;;;8.60;99.90;;;;;;5039739;28;20033;-42
2023/04/18 01:28:57;;;;;;;10.18;8.07;;;8.60;99.80;;;;;;5036025;28;20021;-44
2023/04/18 01:31:23;;;;;;;12.23;8.13;;;8.60;99.80;;;;;;5040481;28;20033;-42
2023/04/18 01:33:48;;;;;;;20.92;8.15;;;8.50;99.80;;;;;;5038606;28;20076;-43
2023/04/18 01:36:14;;;;;;;11.15;8.30;;;8.50;99.80;;;;;;5039413;28;20032;-43
2023/04/18 01:38:40;;;;;;;10.95;9.18;;;8.50;99.80;;;;;;5039415;28;20550;-43
2023/04/18 01:41:05;;;;;;;10.82;8.80;;;8.40;99.70;;;;;;5038317;28;20585;-44
2023/04/18 01:43:31;;;;;;;8.57;7.47;;;8.40;99.80;;;;;;5039109;28;20033;-43
2023/04/18 01:45:56;;;;;;;10.95;8.63;;;8.40;99.90;;;;;;5040039;28;20024;-43
2023/04/18 01:48:22;;;;;;;10.63;8.05;;;8.40;99.90;;;;;;5038735;28;20084;-44
2023/04/18 01:50:48;;;;;;;11.55;8.30;;;8.40;99.90;;;;;;5039684;28;20629;-43
2023/04/18 01:53:13;;;;;;;10.25;7.95;;;8.30;99.80;;;;;;5040379;28;20551;-42
2023/04/18 01:55:39;;;;;;;13.63;9.40;;;8.30;99.90;;;;;;5039657;28;20403;-43
2023/04/18 01:58:04;;;;;;;9.55;7.55;;;8.20;99.90;;;;;;5039638;28;20513;-42
2023/04/18 02:00:30;;;;;;;11.65;8.60;;;8.20;99.90;;;;;;5039807;28;20087;-44
2023/04/18 02:02:59;;;;;;;12.00;8.68;;;8.20;99.90;;;;;;5038444;28;20057;-42
2023/04/18 02:05:26;;;;;;;11.95;8.80;;;8.20;99.90;;;;;;5040008;28;20037;-43
2023/04/18 02:07:51;;;;;;;9.93;7.78;;;8.10;99.80;;;;;;5039702;28;20041;-43
2023/04/18 02:10:18;;;;;;;10.82;8.30;;;8.10;99.90;;;;;;5039053;28;20031;-42
2023/04/18 02:12:43;;;;;;;11.63;8.18;;;8.00;99.80;;;;;;5039009;28;20563;-44
2023/04/18 02:15:09;;;;;;;11.27;8.57;;;8.00;99.80;;;;;;5037339;28;20039;-43
2023/04/18 02:17:35;;;;;;;10.77;8.80;;;7.90;99.90;;;;;;5037101;28;20151;-43
2023/04/18 02:20:01;;;;;;;9.65;7.57;;;7.90;99.90;;;;;;5039706;28;20025;-43
2023/04/18 02:22:26;;;;;;;11.20;8.10;;;7.90;99.90;;;;;;5039413;28;20032;-44
2023/04/18 02:24:52;;;;;;;10.98;7.95;;;7.90;99.90;;;;;;5038716;28;20025;-42
2023/04/18 02:27:17;;;;;;;14.63;8.52;;;7.80;99.90;;;;;;5039527;28;20029;-41
2023/04/18 02:29:43;;;;;;;10.27;8.32;;;7.80;99.90;;;;;;5042649;28;20456;-43
2023/04/18 02:32:08;;;;;;;10.80;8.70;;;7.80;99.90;;;;;;5042634;28;20059;-43
2023/04/18 02:34:35;;;;;;;9.43;7.80;;;7.70;99.90;;;;;;5044598;28;20571;-45
2023/04/18 02:37:00;;;;;;;11.73;8.40;;;7.70;99.90;;;;;;5043089;28;20120;-42
2023/04/18 02:39:26;;;;;;;12.00;8.40;;;7.70;99.90;;;;;;5044003;28;20021;-43
2023/04/18 02:41:52;;;;;;;11.90;8.30;;;7.70;99.90;;;;;;5043366;28;20033;-43
2023/04/18 02:44:20;;;;;;;11.88;8.20;;;7.60;99.90;;;;;;5042108;28;20021;-45
2023/04/18 02:46:46;;;;;;;10.20;8.48;;;7.60;99.90;;;;;;5042167;28;20164;-44
2023/04/18 02:49:11;;;;;;;10.60;8.57;;;7.60;99.90;;;;;;5042094;28;20049;-44
2023/04/18 02:51:37;;;;;;;10.77;8.27;;;7.60;99.90;;;;;;5041472;28;20123;-42
2023/04/18 02:54:02;;;;;;;10.30;7.68;;;7.50;99.90;;;;;;5042903;28;20025;-42
2023/04/18 02:56:28;;;;;;;11.27;8.15;;;7.50;99.90;;;;;;5043438;28;20017;-43
2023/04/18 02:58:53;;;;;;;9.68;8.18;;;7.50;99.90;;;;;;5041547;28;20021;-43
2023/04/18 03:01:19;;;;;;;10.55;8.52;;;7.40;99.90;;;;;;5043366;28;20018;-42
2023/04/18 03:03:45;;;;;;;11.48;7.75;;;7.40;99.90;;;;;;5042561;28;20029;-43
2023/04/18 03:06:11;;;;;;;12.80;9.25;;;7.40;99.90;;;;;;5041578;28;20033;-42
2023/04/18 03:08:36;;;;;;;12.93;8.23;;;7.40;99.90;;;;;;5042353;28;20032;-43
2023/04/18 03:11:02;;;;;;;10.20;8.02;;;7.40;99.90;;;;;;5042304;28;20028;-42
2023/04/18 03:13:27;;;;;;;11.15;7.97;;;7.40;99.90;;;;;;5041765;28;20095;-43
2023/04/18 03:15:53;;;;;;;9.23;7.68;;;7.30;99.90;;;;;;5042824;28;20035;-42
2023/04/18 03:18:19;;;;;;;10.50;8.75;;;7.30;99.90;;;;;;5042598;28;20112;-42
2023/04/18 03:20:45;;;;;;;15.23;9.27;;;7.30;99.90;;;;;;5042501;28;20029;-42
2023/04/18 03:23:10;;;;;;;12.70;9.35;;;7.30;99.90;;;;;;5042738;28;20035;-42
2023/04/18 03:25:36;;;;;;;11.43;8.52;;;7.30;99.90;;;;;;5042213;28;20036;-43
2023/04/18 03:28:01;;;;;;;11.00;8.82;;;7.20;99.90;;;;;;5041335;28;20044;-42
2023/04/18 03:30:27;;;;;;;12.02;8.57;;;7.20;99.90;;;;;;5042571;28;20805;-42
2023/04/18 03:32:54;;;;;;;10.60;8.80;;;7.20;99.90;;;;;;5041928;28;20020;-43
2023/04/18 03:35:20;;;;;;;14.77;9.35;;;7.10;99.90;;;;;;5042160;28;20099;-43
2023/04/18 03:37:45;;;;;;;13.77;9.50;;;7.10;99.90;;;;;;5042306;28;20527;-42
2023/04/18 03:40:11;;;;;;;11.88;8.30;;;7.10;99.90;;;;;;5041030;28;20702;-42
2023/04/18 03:42:36;;;;;;;12.15;9.32;;;7.10;99.90;;;;;;5041530;28;20032;-43
2023/04/18 03:45:02;;;;;;;11.88;9.00;;;7.10;99.90;;;;;;5041494;28;20548;-43
2023/04/18 03:47:30;;;;;;;12.35;9.35;;;7.20;99.90;;;;;;5041237;28;20841;-44
2023/04/18 03:49:55;;;;;;;11.35;9.43;;;7.20;99.90;;;;;;5041458;28;20043;-43
2023/04/18 03:52:21;;;;;;;12.05;9.05;;;7.20;99.90;;;;;;5041909;28;20033;-44
2023/04/18 03:54:47;;;;;;;13.90;9.80;;;7.30;99.90;;;;;;5039469;28;20712;-42
2023/04/18 03:57:12;;;;;;;12.23;9.68;;;7.30;99.90;;;;;;5041057;28;20365;-43
2023/04/18 03:59:38;;;;;;;12.45;9.50;;;7.30;99.90;;;;;;5040628;28;20059;-44
2023/04/18 04:02:03;;;;;;;11.65;8.77;;;7.30;99.90;;;;;;5039933;28;20033;-44
2023/04/18 04:04:29;;;;;;;11.90;9.23;;;7.30;99.90;;;;;;5041126;28;20032;-44
2023/04/18 04:06:54;;;;;;;13.07;8.82;;;7.30;99.90;;;;;;5041402;28;20060;-42
2023/04/18 04:09:20;;;;;;;11.40;8.88;;;7.40;99.90;;;;;;5040914;28;20750;-43
2023/04/18 04:11:45;;;;;;;13.13;9.10;;;7.30;99.90;;;;;;5041134;28;20068;-42
2023/04/18 04:14:11;;;;;;;12.70;9.85;;;7.40;99.90;;;;;;5040863;28;20464;-43
2023/04/18 04:16:39;;;;;;;12.35;9.13;;;7.40;99.90;;;;;;5039912;28;20068;-44
2023/04/18 04:19:05;;;;;;;13.63;10.32;;;7.40;99.90;;;;;;5040424;28;20614;-43
2023/04/18 04:21:30;;;;;;;12.25;9.63;;;7.40;99.90;;;;;;5040610;28;20032;-43
2023/04/18 04:23:56;;;;;;;11.77;10.30;;;7.40;99.90;;;;;;5040226;28;20029;-43
2023/04/18 04:26:22;;;;;;;15.15;11.15;;;7.50;99.90;;;;;;5041169;28;20037;-43
2023/04/18 04:28:48;;;;;;;11.90;9.93;;;7.50;99.90;;;;;;5040534;28;20036;-43
2023/04/18 04:31:15;;;;;;;13.13;10.02;;;7.50;99.90;;;;;;5040025;28;20135;-42
2023/04/18 04:33:42;;;;;;;11.55;8.88;;;7.50;99.90;;;;;;5041161;28;20036;-42
2023/04/18 04:36:08;;;;;;;10.30;8.75;;;7.60;99.90;;;;;;5040952;28;20057;-44
2023/04/18 04:38:37;;;;;;;12.23;9.20;;;7.60;99.90;;;;;;5040622;28;20767;-42
2023/04/18 04:41:05;;;;;;;10.40;8.20;;;7.60;99.90;;;;;;5040260;28;20028;-43
2023/04/18 04:43:31;;;;;;;11.18;9.00;;;7.70;99.90;;;;;;5040597;28;20431;-43
2023/04/18 04:45:57;;;;;;;12.80;9.40;;;7.70;99.90;;;;;;5040438;28;20021;-42
2023/04/18 04:48:23;;;;;;;13.68;9.07;;;7.70;99.90;;;;;;5041101;28;20061;-44
2023/04/18 04:50:55;;;;;;;12.93;10.20;;;7.70;99.90;;;;;;5040469;28;20017;-43
2023/04/18 04:53:22;;;;;;;12.95;10.23;;;7.70;99.90;;;;;;5041171;28;20024;-42
2023/04/18 04:55:47;;;;;;;12.23;9.75;;;7.70;99.90;;;;;;5040354;28;20024;-43
2023/04/18 04:58:13;;;;;;;13.48;9.40;;;7.70;99.90;;;;;;5040252;28;20057;-42
2023/04/18 05:00:39;;;;;;;13.77;9.85;;;7.70;99.90;;;;;;5039913;28;20017;-43
2023/04/18 05:03:05;;;;;;;14.60;9.75;;;7.70;99.90;;;;;;5039688;28;20056;-44
2023/04/18 05:05:31;;;;;;;15.40;9.98;;;7.70;99.90;;;;;;5039092;28;20033;-42
2023/04/18 05:07:57;;;;;;;13.73;10.05;;;7.70;99.90;;;;;;5039295;28;20032;-44
2023/04/18 05:10:22;;;;;;;15.40;10.30;;;7.80;99.90;;;;;;5040092;28;20071;-44
2023/04/18 05:12:48;;;;;;;11.63;9.55;;;7.70;99.90;;;;;;5039308;28;20574;-42
2023/04/18 05:15:15;;;;;;;11.15;9.27;;;7.70;99.90;;;;;;5040928;28;20024;-43
2023/04/18 05:17:41;;;;;;;13.27;9.60;;;7.80;99.90;;;;;;5040425;28;20025;-43
2023/04/18 05:20:07;;;;;;;15.07;9.48;;;7.80;99.90;;;;;;5040135;28;20040;-42
2023/04/18 05:22:33;;;;;;;11.77;9.27;;;7.80;99.90;;;;;;5039782;28;20025;-43
2023/04/18 05:24:58;;;;;;;13.95;9.45;;;7.80;99.90;;;;;;5040260;28;20025;-43
2023/04/18 05:27:26;;;;;;;11.20;9.38;;;7.90;99.90;;;;;;5039522;28;20036;-42
2023/04/18 05:29:51;;;;;;;12.45;9.52;;;7.90;99.90;;;;;;5039545;28;20027;-44
2023/04/18 05:32:17;;;;;;;12.45;9.93;;;7.90;99.90;;;;;;5040329;28;20067;-42
2023/04/18 05:34:43;;;;;;;16.98;10.80;;;7.90;99.90;;;;;;5040679;28;20052;-42
2023/04/18 05:37:09;;;;;;;13.57;10.45;;;8.00;99.90;;;;;;5039545;28;20121;-43
2023/04/18 05:39:34;;;;;;;18.30;11.23;;;8.00;99.90;;;;;;5037689;28;20025;-43
2023/04/18 05:42:01;;;;;;;12.90;10.30;;;8.00;99.90;;;;;;5036849;28;20047;-42
2023/04/18 05:44:26;;;;;;;12.43;10.15;;;8.00;99.90;;;;;;5038479;28;20047;-44
2023/04/18 05:46:52;;;;;;;16.30;10.23;;;8.00;99.90;;;;;;5037668;28;20549;-43
2023/04/18 05:49:18;;;;;;;11.68;9.55;;;8.10;99.90;;;;;;5038648;28;20104;-43
2023/04/18 05:51:44;;;;;;;12.60;10.70;;;8.10;99.90;;;;;;5039419;28;20118;-43
2023/04/18 05:54:10;;;;;;;12.15;9.45;;;8.10;99.90;;;;;;5038469;28;20032;-42
2023/04/18 05:56:36;;;;;;;11.63;9.73;;;8.20;99.90;;;;;;5039807;28;20043;-44
2023/04/18 05:59:01;;;;;;;13.52;9.80;;;8.20;99.90;;;;;;5038812;28;20024;-44
2023/04/18 06:01:31;;;;;;;14.10;9.93;;;8.30;99.90;;;;;;5038147;28;20024;-43
2023/04/18 06:03:57;;;;;;;13.02;9.73;;;8.30;99.90;;;;;;5040014;28;20033;-42
2023/04/18 06:06:22;;;;;;;16.88;11.95;;;8.40;99.90;;;;;;5042863;28;20834;-43
2023/04/18 06:08:48;;;;;;;13.02;9.27;;;8.40;99.90;;;;;;5041281;28;20032;-44
2023/04/18 06:11:14;;;;;;;14.25;10.85;;;8.50;99.90;;;;;;5042336;28;20029;-43
2023/04/18 06:13:40;;;;;;;11.82;9.25;;;8.50;99.90;;;;;;5041517;28;20029;-45
2023/04/18 06:16:07;;;;;;;14.43;10.60;;;8.60;99.90;;;;;;5041211;28;20026;-43
2023/04/18 06:18:33;;;;;;;13.75;9.18;;;8.60;99.90;;;;;;5041161;28;20029;-43
2023/04/18 06:20:58;;;;;;;12.35;9.70;;;8.70;99.90;;;;;;5041807;28;20055;-44
2023/04/18 06:23:24;;;;;;;16.10;12.20;;;8.70;99.90;;;;;;5041979;28;20020;-43
2023/04/18 06:25:50;;;;;;;17.08;10.57;;;8.70;99.90;;;;;;5042939;28;20028;-44
2023/04/18 06:28:15;;;;;;;12.10;9.02;;;8.80;99.90;;;;;;5043079;28;20496;-42
2023/04/18 06:30:41;;;;;;;10.60;8.82;;;8.80;99.90;;;;;;5042187;28;20021;-42
2023/04/18 06:33:09;;;;;;;11.50;9.20;;;8.90;99.90;;;;;;5042560;28;20116;-43
2023/04/18 06:35:35;;;;;;;12.35;8.90;;;8.90;99.90;;;;;;5043150;28;20032;-43
2023/04/18 06:38:01;;;;;;;14.32;9.60;;;9.00;99.90;;;;;;5042201;28;20091;-43
2023/04/18 06:40:26;;;;;;;12.30;9.43;;;9.00;99.90;;;;;;5041842;28;20033;-44
2023/04/18 06:42:52;;;;;;;13.65;10.25;;;9.00;99.90;;;;;;5043017;28;20021;-43
2023/04/18 06:45:18;;;;;;;11.68;9.00;;;9.00;99.90;;;;;;5042376;28;20035;-41
2023/04/18 06:47:44;;;;;;;11.13;8.43;;;9.10;99.90;;;;;;5041618;28;20049;-43
2023/04/18 06:50:10;;;;;;;13.60;10.35;;;9.10;99.90;;;;;;5041245;28;20037;-42
2023/04/18 06:52:39;;;;;;;12.23;9.18;;;9.20;99.90;;;;;;5042513;28;20040;-42
2023/04/18 06:55:06;;;;;;;11.75;8.90;;;9.20;99.90;;;;;;5041565;28;20025;-43
2023/04/18 06:57:31;;;;;;;10.93;8.48;;;9.30;99.90;;;;;;5041891;28;20021;-44
2023/04/18 06:59:57;;;;;;;9.63;7.82;;;9.30;99.90;;;;;;5041701;28;20451;-43
2023/04/18 07:02:23;;;;;;;9.52;7.50;;;9.40;99.90;;;;;;5042585;28;20025;-44
2023/04/18 07:04:49;;;;;;;9.82;8.00;;;9.50;99.90;;;;;;5041972;28;20542;-43
2023/04/18 07:07:14;;;;;;;9.95;8.05;;;9.50;99.90;;;;;;5042479;28;20056;-43
2023/04/18 07:09:40;;;;;;;9.63;7.78;;;9.60;99.90;;;;;;5042203;28;20028;-44
2023/04/18 07:12:06;;;;;;;9.25;7.88;;;9.70;99.90;;;;;;5042298;28;20554;-43
2023/04/18 07:14:31;;;;;;;8.82;7.93;;;9.70;99.90;;;;;;5041373;28;20488;-44
2023/04/18 07:16:57;;;;;;;9.93;8.32;;;9.80;99.90;;;;;;5042045;28;20060;-43
2023/04/18 07:19:22;;;;;;;9.73;7.72;;;9.90;99.90;;;;;;5041131;28;20057;-45
2023/04/18 07:21:48;;;;;;;8.88;6.90;;;9.90;99.90;;;;;;5040768;28;20711;-44
2023/04/18 07:24:13;;;;;;;8.52;6.90;;;9.90;99.90;;;;;;5041396;28;20518;-45
2023/04/18 07:26:39;;;;;;;9.75;6.93;;;9.90;99.90;;;;;;5040039;28;20037;-43
2023/04/18 07:29:05;;;;;;;9.48;7.82;;;9.80;99.90;;;;;;5039449;28;20063;-43
2023/04/18 07:31:30;;;;;;;8.13;6.80;;;9.80;99.90;;;;;;5041633;28;20370;-43
2023/04/18 07:33:56;;;;;;;7.90;6.65;;;9.70;99.90;;;;;;5041020;28;20036;-44
2023/04/18 07:36:22;;;;;;;9.05;6.93;;;9.70;99.90;;;;;;5042674;28;20020;-43
2023/04/18 07:38:48;;;;;;;8.45;7.00;;;9.70;99.90;;;;;;5042539;28;20109;-42
2023/04/18 07:41:14;;;;;;;9.20;7.72;;;9.70;99.90;;;;;;5041668;28;20021;-43
2023/04/18 07:43:39;;;;;;;9.82;7.70;;;9.80;99.90;;;;;;5041385;28;20116;-43
2023/04/18 07:46:06;;;;;;;9.40;7.22;;;9.80;99.90;;;;;;5041920;28;20456;-43
2023/04/18 07:48:31;;;;;;;8.93;7.40;;;9.90;99.90;;;;;;5040393;28;20482;-42
2023/04/18 07:50:57;;;;;;;9.75;6.70;;;9.90;99.90;;;;;;5041782;28;20032;-43
2023/04/18 07:53:23;;;;;;;9.23;7.38;;;10.00;99.90;;;;;;5041338;28;20036;-43
2023/04/18 07:55:49;;;;;;;8.75;7.13;;;10.10;99.90;;;;;;5040701;28;20032;-44
2023/04/18 07:58:15;;;;;;;8.50;6.38;;;10.10;99.90;;;;;;5041716;28;20021;-42
2023/04/18 08:00:43;;;;;;;7.88;7.07;;;10.10;99.90;;;;;;5041065;28;20036;-42
2023/04/18 08:03:10;;;;;;;7.35;6.40;;;10.20;99.90;;;;;;5041010;28;20032;-44
2023/04/18 08:05:37;;;;;;;7.20;6.50;;;10.40;99.90;;;;;;5041467;28;20025;-42
2023/04/18 08:08:06;;;;;;;7.85;6.25;;;10.50;99.90;;;;;;5040865;28;20127;-42
2023/04/18 08:10:31;;;;;;;7.53;6.25;;;10.60;99.90;;;;;;5041515;28;20056;-43
2023/04/18 08:12:57;;;;;;;8.15;6.72;;;10.70;99.90;;;;;;5041973;28;20112;-43
2023/04/18 08:15:23;;;;;;;8.10;6.68;;;10.70;99.90;;;;;;5040945;28;20024;-42
2023/04/18 08:17:48;;;;;;;8.68;7.13;;;10.60;99.90;;;;;;5041208;28;20025;-43
2023/04/18 08:20:14;;;;;;;7.50;6.53;;;10.60;99.90;;;;;;5041080;28;20021;-43
2023/04/18 08:22:40;;;;;;;9.35;6.57;;;10.60;99.90;;;;;;5040829;28;20103;-44
2023/04/18 08:25:06;;;;;;;9.85;6.15;;;10.70;99.90;;;;;;5039384;28;20799;-43
2023/04/18 08:27:38;;;;;;;7.10;6.40;;;10.90;99.90;;;;;;5039521;28;20037;-43
2023/04/18 08:30:05;;;;;;;9.50;6.40;;;11.10;99.90;;;;;;5039337;28;20108;-43
2023/04/18 08:32:31;;;;;;;7.10;5.55;;;11.10;99.90;;;;;;5039695;28;20376;-43
2023/04/18 08:34:57;;;;;;;7.68;6.15;;;11.10;99.90;;;;;;5039394;28;20021;-44
2023/04/18 08:37:23;;;;;;;8.50;6.60;;;11.10;99.90;;;;;;5039973;28;20025;-43
2023/04/18 08:39:48;;;;;;;7.43;6.50;;;11.10;99.90;;;;;;5039408;28;20032;-43
2023/04/18 08:42:18;;;;;;;7.97;6.65;;;11.10;99.90;;;;;;5040934;28;20051;-43
2023/04/18 08:44:45;;;;;;;8.13;6.70;;;11.20;99.90;;;;;;5039857;28;20429;-43
2023/04/18 08:47:11;;;;;;;7.45;6.72;;;11.20;99.90;;;;;;5040254;28;20029;-44
2023/04/18 08:49:40;;;;;;;7.40;6.63;;;11.30;99.90;;;;;;5039983;28;20053;-43
2023/04/18 08:52:18;;;;;;;7.78;6.18;;;11.30;99.90;;;;;;5039423;28;20040;-42
2023/04/18 08:54:45;;;;;;;7.20;6.38;;;11.40;99.90;;;;;;5040776;28;20036;-44
2023/04/18 08:57:15;;;;;;;7.22;6.40;;;11.50;99.90;;;;;;5039782;28;20044;-43
2023/04/18 08:59:44;;;;;;;6.55;5.85;;;11.50;99.90;;;;;;5038850;28;20036;-43
2023/04/18 09:02:11;;;;;;;6.65;5.75;;;11.50;99.90;;;;;;5040291;28;20183;-44
2023/04/18 09:04:36;;;;;;;8.45;6.20;;;11.60;99.90;;;;;;5039234;28;20151;-43
2023/04/18 09:07:04;;;;;;;7.22;5.80;;;11.70;99.90;;;;;;5040289;28;20062;-42
2023/04/18 09:09:59;;;;;;;6.85;5.95;;;11.80;99.90;;;;;;5039993;28;20021;-43
2023/04/18 09:12:26;;;;;;;6.00;5.40;;;11.90;99.90;;;;;;5033744;28;20722;-42
2023/04/18 09:14:57;;;;;;;7.22;5.45;;;11.90;99.90;;;;;;5039439;28;20052;-43
2023/04/18 09:17:47;;;;;;;5.70;4.72;;;11.90;99.90;;;;;;5039762;28;20362;-44
2023/04/18 09:20:14;;;;;;;6.55;5.82;;;11.90;99.90;;;;;;5039708;28;20108;-43
2023/04/18 09:22:47;;;;;;;6.47;5.80;;;12.00;99.90;;;;;;5039689;28;20032;-44
2023/04/18 09:25:38;;;;;;;6.00;5.40;;;12.00;99.90;;;;;;5039207;28;20096;-43
2023/04/18 09:28:28;;;;;;;5.93;5.30;;;12.00;99.90;;;;;;5039980;28;20059;-43
2023/04/18 09:30:58;;;;;;;5.30;4.80;;;12.00;99.90;;;;;;5039898;28;20147;-43
2023/04/18 09:33:32;;;;;;;5.53;4.80;;;12.10;99.90;;;;;;5038476;28;20037;-42
2023/04/18 09:36:19;;;;;;;7.03;5.90;;;12.30;99.90;;;;;;5039590;28;20365;-44
2023/04/18 09:38:45;;;;;;;7.18;5.57;;;12.40;99.90;;;;;;5040460;28;20107;-43
2023/04/18 09:41:14;;;;;;;5.80;5.18;;;12.50;99.90;;;;;;5042115;28;20717;-43
2023/04/18 09:43:40;;;;;;;6.05;5.43;;;12.50;99.90;;;;;;5042990;28;20093;-44
2023/04/18 09:46:06;;;;;;;6.57;5.32;;;12.40;99.90;;;;;;5042898;28;20037;-43
2023/04/18 09:48:32;;;;;;;6.72;5.35;;;12.40;99.90;;;;;;5043147;28;20510;-42
2023/04/18 09:51:04;;;;;;;6.13;5.53;;;12.50;99.90;;;;;;5042817;28;20017;-44
2023/04/18 09:53:30;;;;;;;5.60;5.00;;;12.50;99.90;;;;;;5042565;28;20043;-43
2023/04/18 09:55:57;;;;;;;5.22;4.72;;;12.50;99.90;;;;;;5043298;28;20025;-44
2023/04/18 09:58:26;;;;;;;5.85;4.90;;;12.60;99.90;;;;;;5043355;28;20087;-43
2023/04/18 10:00:55;;;;;;;6.30;5.68;;;12.80;99.90;;;;;;5042531;28;20025;-44
2023/04/18 10:03:28;;;;;;;5.30;4.80;;;12.80;99.90;;;;;;5043185;28;20025;-44
2023/04/18 10:05:54;;;;;;;;;;;12.90;99.90;;;;;;5043837;28;20033;-43
2023/04/18 10:08:20;;;;;;;6.00;5.35;;;12.90;99.90;;;;;;5043509;28;20011;-44
2023/04/18 10:10:45;;;;;;;5.00;4.43;;;12.90;99.90;;;;;;5043363;28;20037;-43
2023/04/18 10:13:13;;;;;;;4.53;4.13;;;12.90;99.90;;;;;;5043545;28;20028;-43
2023/04/18 10:15:38;;;;;;;4.80;4.35;;;13.00;99.90;;;;;;5042260;28;20888;-44
2023/04/18 10:18:14;;;;;;;5.22;4.40;;;13.10;99.90;;;;;;5042868;28;20021;-43
2023/04/18 10:20:40;;;;;;;5.20;4.22;;;13.10;99.90;;;;;;5043210;28;20129;-44
2023/04/18 10:23:33;;;;;;;6.13;4.43;;;13.20;99.90;;;;;;5042687;28;20114;-44
2023/04/18 10:25:59;;;;;;;4.70;4.20;;;13.30;99.90;;;;;;5024144;28;20033;-43
2023/04/18 10:28:26;;;;;;;4.80;4.30;;;13.20;99.80;;;;;;5042712;28;20036;-43
2023/04/18 10:31:02;;;;;;;4.90;4.40;;;13.30;99.70;;;;;;5044062;28;20128;-43
2023/04/18 10:33:31;;;;;;;6.88;5.07;;;13.40;99.60;;;;;;5043056;28;20159;-44
2023/04/18 10:36:01;;;;;;;6.93;5.30;;;13.40;99.50;;;;;;5042607;28;20773;-43
2023/04/18 10:38:27;;;;;;;5.72;4.63;;;13.40;99.50;;;;;;5043534;28;20411;-43
2023/04/18 10:41:19;;;;;;;7.00;5.13;;;13.50;99.60;;;;;;5043601;28;20025;-45
2023/04/18 10:44:07;;;;;;;7.38;6.10;;;13.60;99.50;;;;;;5042106;28;20685;-44
2023/04/18 10:46:43;;;;;;;6.28;5.32;;;13.80;99.10;;;;;;5041986;28;20215;-43
2023/04/18 10:49:16;;;;;;;5.45;4.93;;;13.80;98.90;;;;;;5041350;28;20049;-43
2023/04/18 10:51:46;;;;;;;7.68;6.25;;;13.80;99.00;;;;;;5042076;28;20940;-43
2023/04/18 10:54:21;;;;;;;6.65;5.63;;;13.80;99.10;;;;;;5041906;28;20017;-44
2023/04/18 10:56:58;;;;;;;6.10;5.50;;;13.70;99.00;;;;;;5041869;28;20032;-44
2023/04/18 10:59:25;;;;;;;6.47;5.88;;;13.60;99.10;;;;;;5042242;28;20060;-43
2023/04/18 11:02:01;;;;;;;7.55;6.07;;;13.60;99.20;;;;;;5041913;28;20021;-43
2023/04/18 11:04:27;;;;;;;6.28;5.63;;;13.60;99.30;;;;;;5041794;28;20187;-43
2023/04/18 11:06:57;;;;;;;6.90;6.05;;;13.60;99.40;;;;;;5042191;28;20033;-43
2023/04/18 11:09:23;;;;;;;8.57;5.82;;;13.70;99.30;;;;;;5041324;28;20075;-46
2023/04/18 11:12:05;;;;;;;7.15;6.45;;;13.80;99.40;;;;;;5041576;28;20037;-43
2023/04/18 11:14:41;;;;;;;7.15;6.30;;;13.90;99.30;;;;;;5041096;28;20066;-43
2023/04/18 11:17:34;;;;;;;7.55;6.70;;;14.00;99.30;;;;;;5035147;28;20111;-43
2023/04/18 11:20:11;;;;;;;7.28;6.57;;;14.20;99.00;;;;;;5041776;28;20582;-43
2023/04/18 11:22:44;;;;;;;9.00;7.18;;;14.20;98.60;;;;;;5042065;28;20053;-43
2023/04/18 11:25:10;;;;;;;7.88;6.70;;;14.30;98.50;;;;;;5040859;28;20462;-43
2023/04/18 11:27:35;;;;;;;6.97;6.10;;;14.30;98.50;;;;;;5042326;28;20041;-44
2023/04/18 11:30:01;;;;;;;7.32;6.47;;;14.30;98.60;;;;;;5041638;28;20036;-44
2023/04/18 11:32:26;;;;;;;7.57;6.50;;;14.40;98.60;;;;;;5041208;28;20108;-44
2023/04/18 11:34:53;;;;;;;7.75;6.95;;;14.40;98.30;;;;;;5042305;28;20141;-42
2023/04/18 11:37:19;;;;;;;6.80;5.80;;;14.30;98.40;;;;;;5042283;28;20029;-43
2023/04/18 11:39:45;;;;;;;6.70;6.00;;;14.40;98.50;;;;;;5041002;28;20022;-44
2023/04/18 11:42:11;;;;;;;7.95;6.80;;;14.50;98.50;;;;;;5041819;28;20724;-43
2023/04/18 11:44:38;;;;;;;6.95;6.07;;;14.70;98.50;;;;;;5041051;28;20037;-43
2023/04/18 11:47:20;;;;;;;6.95;6.28;;;14.70;98.40;;;;;;5041691;28;20492;-43
2023/04/18 11:49:46;;;;;;;7.18;6.47;;;14.70;98.20;;;;;;5042001;28;20045;-44
2023/04/18 11:52:13;;;;;;;10.35;8.48;;;14.80;98.10;;;;;;5042691;28;20473;-43
2023/04/18 11:54:43;;;;;;;8.30;7.05;;;14.70;98.20;;;;;;5039888;28;20147;-44
2023/04/18 11:57:26;;;;;;;8.50;7.43;;;14.70;98.10;;;;;;5029678;28;20032;-43
2023/04/18 11:59:56;;;;;;;8.05;7.22;;;14.60;98.00;;;;;;5039572;28;20112;-44
2023/04/18 12:02:25;;;;;;;7.38;6.60;;;14.60;98.10;;;;;;5042352;28;21200;-43
2023/04/18 12:04:58;;;;;;;7.88;6.82;;;14.50;98.20;;;;;;5056550;28;20044;-43
2023/04/18 12:07:34;;;;;;;8.30;6.82;;;14.50;98.30;;;;;;5040339;28;20586;-43
2023/04/18 12:10:00;;;;;;;7.75;6.90;;;14.50;98.40;;;;;;5041187;28;20111;-43
2023/04/18 12:12:26;;;;;;;10.02;8.57;;;14.50;98.40;;;;;;5041111;28;20033;-44
2023/04/18 12:15:12;;;;;;;9.45;8.13;;;14.50;98.30;;;;;;5040184;28;20028;-43
2023/04/18 12:17:37;;;;;;;11.60;8.65;;;14.40;98.40;;;;;;5039044;28;20029;-43
2023/04/18 12:20:05;;;;;;;8.95;7.70;;;14.40;98.40;;;;;;5041226;28;20031;-44
2023/04/18 12:22:43;;;;;;;8.45;7.55;;;14.40;98.50;;;;;;5035871;28;20472;-44
2023/04/18 12:25:18;;;;;;;8.88;7.97;;;14.30;98.50;;;;;;5041727;28;20035;-42
2023/04/18 12:27:59;;;;;;;9.70;7.72;;;14.30;98.70;;;;;;5038091;28;20044;-43
2023/04/18 12:30:30;;;;;;;9.10;8.00;;;14.30;98.80;;;;;;5040994;28;20029;-43
2023/04/18 12:33:01;;;;;;;9.25;8.02;;;14.30;98.90;;;;;;5041024;28;20031;-43
2023/04/18 12:35:27;;;;;;;8.82;7.93;;;14.30;99.00;;;;;;5039362;28;20434;-43
2023/04/18 12:37:56;;;;;;;10.95;8.27;;;14.30;99.00;;;;;;5039929;28;20024;-43
2023/04/18 12:40:22;;;;;;;7.93;7.13;;;14.30;99.00;;;;;;5041147;28;20526;-43
2023/04/18 12:42:49;;;;;;;9.48;8.57;;;14.40;99.10;;;;;;5039872;28;20067;-43
2023/04/18 12:45:15;;;;;;;10.43;8.52;;;14.50;99.00;;;;;;5041482;28;20468;-43
2023/04/18 12:47:43;;;;;;;11.57;9.35;;;14.60;99.00;;;;;;5040434;28;20033;-43
2023/04/18 12:50:10;;;;;;;10.25;9.25;;;14.70;99.00;;;;;;5039905;28;20033;-43